createdAt,value
2018-12-08T00:02:27.600Z,7.96
2018-12-08T00:04:55.115Z,7.89
2018-12-08T00:07:22.645Z,7.72
2018-12-08T00:09:50.144Z,7.78
2018-12-08T00:12:17.675Z,7.70
2018-12-08T00:14:45.240Z,7.86
2018-12-08T00:17:12.747Z,8.08
2018-12-08T00:19:40.275Z,7.92
2018-12-08T00:22:08.470Z,7.98
2018-12-08T00:24:36.182Z,7.99
2018-12-08T00:27:03.829Z,7.84
2018-12-08T00:29:31.335Z,7.92
2018-12-08T00:31:58.859Z,7.78
2018-12-08T00:34:26.746Z,7.74
2018-12-08T00:36:54.309Z,7.78
2018-12-08T00:39:21.807Z,7.81
2018-12-08T00:41:49.304Z,7.75
2018-12-08T00:44:16.840Z,7.82
2018-12-08T00:46:44.336Z,7.98
2018-12-08T00:49:11.970Z,7.94
2018-12-08T00:51:39.615Z,7.71
2018-12-08T00:54:07.412Z,7.79
2018-12-08T00:56:35.139Z,7.90
2018-12-08T00:59:02.646Z,7.96
2018-12-08T01:01:30.201Z,7.92
2018-12-08T01:03:57.708Z,7.82
2018-12-08T01:06:25.199Z,7.74
2018-12-08T01:08:52.720Z,7.71
2018-12-08T01:11:20.225Z,7.86
2018-12-08T01:13:47.765Z,7.96
2018-12-08T01:16:15.272Z,7.94
2018-12-08T01:18:42.795Z,7.84
2018-12-08T01:21:10.332Z,7.87
2018-12-08T01:23:37.860Z,7.80
2018-12-08T01:26:05.476Z,7.88
2018-12-08T01:28:32.975Z,7.79
2018-12-08T01:31:00.491Z,7.79
2018-12-08T01:33:28.132Z,7.67
2018-12-08T01:35:55.640Z,7.47
2018-12-08T01:38:23.163Z,7.49
2018-12-08T01:40:50.656Z,7.53
2018-12-08T01:43:18.395Z,7.73
2018-12-08T01:45:45.988Z,7.60
2018-12-08T01:48:13.619Z,7.62
2018-12-08T01:50:41.152Z,7.60
2018-12-08T01:53:08.667Z,7.50
2018-12-08T01:55:36.217Z,7.37
2018-12-08T01:58:03.811Z,7.37
2018-12-08T02:00:31.511Z,7.43
2018-12-08T02:02:59.054Z,7.38
2018-12-08T02:05:26.579Z,7.33
2018-12-08T02:07:54.183Z,7.55
2018-12-08T02:10:21.676Z,7.43
2018-12-08T02:12:49.207Z,7.40
2018-12-08T02:15:16.731Z,7.34
2018-12-08T02:17:44.245Z,7.26
2018-12-08T02:20:11.772Z,7.24
2018-12-08T02:22:39.287Z,7.43
2018-12-08T02:25:06.911Z,7.40
2018-12-08T02:27:34.478Z,7.23
2018-12-08T02:30:02.010Z,7.33
2018-12-08T02:32:29.653Z,7.58
2018-12-08T02:34:57.149Z,7.41
2018-12-08T02:37:24.663Z,7.50
2018-12-08T02:39:52.211Z,7.53
2018-12-08T02:42:19.727Z,7.49
2018-12-08T02:44:47.283Z,7.47
2018-12-08T02:47:14.790Z,7.58
2018-12-08T02:49:42.304Z,7.55
2018-12-08T02:52:09.823Z,7.54
2018-12-08T02:54:37.347Z,7.71
2018-12-08T02:57:04.908Z,7.41
2018-12-08T02:59:32.411Z,7.36
2018-12-08T03:01:59.920Z,7.47
2018-12-08T03:04:27.456Z,7.42
2018-12-08T03:06:55.013Z,7.46
2018-12-08T03:09:22.678Z,7.52
2018-12-08T03:11:50.246Z,7.30
2018-12-08T03:14:17.771Z,7.33
2018-12-08T03:16:45.325Z,7.48
2018-12-08T03:19:12.847Z,7.37
2018-12-08T03:21:40.385Z,7.29
2018-12-08T03:24:07.888Z,7.32
2018-12-08T03:26:35.383Z,7.27
2018-12-08T03:29:02.907Z,7.22
2018-12-08T03:31:30.398Z,7.19
2018-12-08T03:33:57.969Z,7.18
2018-12-08T03:36:25.463Z,7.16
2018-12-08T03:38:52.988Z,6.99
2018-12-08T03:41:20.547Z,6.97
2018-12-08T03:43:48.053Z,7.09
2018-12-08T03:46:15.761Z,6.87
2018-12-08T03:48:43.276Z,6.93
2018-12-08T03:51:10.785Z,6.88
2018-12-08T03:53:38.332Z,6.86
2018-12-08T03:56:05.835Z,6.89
2018-12-08T03:58:33.460Z,7.00
2018-12-08T04:01:00.968Z,6.88
2018-12-08T04:03:28.480Z,7.02
2018-12-08T04:05:56.030Z,7.07
2018-12-08T04:08:23.537Z,6.88
2018-12-08T04:10:51.107Z,6.92
2018-12-08T04:13:18.622Z,6.78
2018-12-08T04:15:46.211Z,6.95
2018-12-08T04:18:13.746Z,7.02
2018-12-08T04:20:41.251Z,6.84
2018-12-08T04:23:08.792Z,6.88
2018-12-08T04:25:36.296Z,6.87
2018-12-08T04:28:03.822Z,6.91
2018-12-08T04:30:31.356Z,6.78
2018-12-08T04:32:58.883Z,6.95
2018-12-08T04:35:26.723Z,6.86
2018-12-08T04:37:54.256Z,7.07
2018-12-08T04:40:21.762Z,7.06
2018-12-08T04:42:49.287Z,6.92
2018-12-08T04:45:16.782Z,6.96
2018-12-08T04:47:44.319Z,6.95
2018-12-08T04:50:11.820Z,6.98
2018-12-08T04:52:39.337Z,7.02
2018-12-08T04:55:06.971Z,7.11
2018-12-08T04:57:34.463Z,7.08
2018-12-08T05:00:02.235Z,7.31
2018-12-08T05:02:29.739Z,7.39
2018-12-08T05:04:57.256Z,7.37
2018-12-08T05:07:24.791Z,7.26
2018-12-08T05:09:52.287Z,7.28
2018-12-08T05:12:19.820Z,7.28
2018-12-08T05:14:47.315Z,7.33
2018-12-08T05:17:14.927Z,7.31
2018-12-08T05:19:42.498Z,7.55
2018-12-08T05:22:10.006Z,7.46
2018-12-08T05:24:37.543Z,7.39
2018-12-08T05:27:05.066Z,7.28
2018-12-08T05:29:32.560Z,7.31
2018-12-08T05:32:00.087Z,7.22
2018-12-08T05:34:27.587Z,7.06
2018-12-08T05:36:55.260Z,7.25
2018-12-08T05:39:22.791Z,7.32
2018-12-08T05:41:50.283Z,7.23
2018-12-08T05:44:17.812Z,7.36
2018-12-08T05:46:45.399Z,7.31
2018-12-08T05:49:13.127Z,7.34
2018-12-08T05:51:40.659Z,7.41
2018-12-08T05:54:08.163Z,7.36
2018-12-08T05:56:35.695Z,7.39
2018-12-08T05:59:03.202Z,7.49
2018-12-08T06:01:30.928Z,7.41
2018-12-08T06:03:58.466Z,7.43
2018-12-08T06:06:26.055Z,7.41
2018-12-08T06:08:53.592Z,7.46
2018-12-08T06:11:21.087Z,7.44
2018-12-08T06:13:48.679Z,7.42
2018-12-08T06:16:16.183Z,7.43
2018-12-08T06:18:43.691Z,7.52
2018-12-08T06:21:11.312Z,7.42
2018-12-08T06:23:38.808Z,7.51
2018-12-08T06:26:07.751Z,7.62
2018-12-08T06:28:35.256Z,7.46
2018-12-08T06:31:02.771Z,7.45
2018-12-08T06:33:30.295Z,7.47
2018-12-08T06:35:57.799Z,7.61
2018-12-08T06:38:25.527Z,7.67
2018-12-08T06:40:53.201Z,7.68
2018-12-08T06:43:20.696Z,7.58
2018-12-08T06:45:48.239Z,7.55
2018-12-08T06:48:15.985Z,7.75
2018-12-08T06:50:43.560Z,7.84
2018-12-08T06:53:11.057Z,7.72
2018-12-08T06:55:38.559Z,7.68
2018-12-08T06:58:06.100Z,7.48
2018-12-08T07:00:33.603Z,7.86
2018-12-08T07:03:01.132Z,7.64
2018-12-08T07:05:28.733Z,7.72
2018-12-08T07:07:56.283Z,7.67
2018-12-08T07:10:23.915Z,7.72
2018-12-08T07:12:51.415Z,7.72
2018-12-08T07:15:18.947Z,7.74
2018-12-08T07:17:46.448Z,7.55
2018-12-08T07:20:13.959Z,7.51
2018-12-08T07:22:41.487Z,7.44
2018-12-08T07:25:08.984Z,7.39
2018-12-08T07:27:36.508Z,7.28
2018-12-08T07:30:06.104Z,7.38
2018-12-08T07:32:38.856Z,7.43
2018-12-08T07:35:03.545Z,7.29
2018-12-08T07:37:31.057Z,7.29
2018-12-08T07:39:58.596Z,7.18
2018-12-08T07:42:26.100Z,7.27
2018-12-08T07:44:53.884Z,7.29
2018-12-08T07:47:21.387Z,7.27
2018-12-08T07:49:48.908Z,7.15
2018-12-08T07:52:16.440Z,7.13
2018-12-08T07:54:43.935Z,7.04
2018-12-08T07:57:11.655Z,7.17
2018-12-08T07:59:39.151Z,7.26
2018-12-08T08:02:06.672Z,7.07
2018-12-08T08:04:34.191Z,7.02
2018-12-08T08:07:01.709Z,7.23
2018-12-08T08:09:29.244Z,7.14
2018-12-08T08:11:56.773Z,7.17
2018-12-08T08:14:24.289Z,6.99
2018-12-08T08:16:51.944Z,7.10
2018-12-08T08:19:19.476Z,7.09
2018-12-08T08:21:47.053Z,7.23
2018-12-08T08:24:14.543Z,7.08
2018-12-08T08:26:42.035Z,7.06
2018-12-08T08:29:09.571Z,7.28
2018-12-08T08:31:37.076Z,7.23
2018-12-08T08:34:04.635Z,7.21
2018-12-08T08:36:32.139Z,7.23
2018-12-08T08:38:59.631Z,7.02
2018-12-08T08:41:27.183Z,7.12
2018-12-08T08:43:56.265Z,7.08
2018-12-08T08:46:24.075Z,7.03
2018-12-08T08:48:51.583Z,7.19
2018-12-08T08:51:19.089Z,7.19
2018-12-08T08:53:46.611Z,7.32
2018-12-08T08:56:14.119Z,7.54
2018-12-08T08:58:41.834Z,7.63
2018-12-08T09:01:09.323Z,7.44
2018-12-08T09:03:36.819Z,7.52
2018-12-08T09:06:04.531Z,7.51
2018-12-08T09:08:32.028Z,7.66
2018-12-08T09:10:59.676Z,7.51
2018-12-08T09:13:29.035Z,7.52
2018-12-08T09:15:56.533Z,7.50
2018-12-08T09:18:24.060Z,7.41
2018-12-08T09:20:51.563Z,7.45
2018-12-08T09:23:19.123Z,7.27
2018-12-08T09:25:46.615Z,7.43
2018-12-08T09:28:14.113Z,7.59
2018-12-08T09:30:41.643Z,7.38
2018-12-08T09:33:09.141Z,7.52
2018-12-08T09:35:36.803Z,7.54
2018-12-08T09:38:04.313Z,7.55
2018-12-08T09:40:31.878Z,7.46
2018-12-08T09:42:59.466Z,7.65
2018-12-08T09:45:26.964Z,7.53
2018-12-08T09:47:54.631Z,7.64
2018-12-08T09:50:22.127Z,7.63
2018-12-08T09:52:57.675Z,7.61
2018-12-08T09:55:25.174Z,7.83
2018-12-08T09:57:52.683Z,7.92
2018-12-08T10:00:20.259Z,7.97
2018-12-08T10:02:47.760Z,8.14
2018-12-08T10:05:15.313Z,8.28
2018-12-08T10:07:42.811Z,8.23
2018-12-08T10:10:10.342Z,8.43
2018-12-08T10:12:37.839Z,8.47
2018-12-08T10:15:05.448Z,8.52
2018-12-08T10:17:32.981Z,8.57
2018-12-08T10:20:00.476Z,8.69
2018-12-08T10:22:28.085Z,8.72
2018-12-08T10:24:55.673Z,8.75
2018-12-08T10:27:23.218Z,8.75
2018-12-08T10:29:50.721Z,8.75
2018-12-08T10:32:18.228Z,8.76
2018-12-08T10:34:45.768Z,8.81
2018-12-08T10:37:13.275Z,8.73
2018-12-08T10:39:40.807Z,8.96
2018-12-08T10:42:08.424Z,8.87
2018-12-08T10:44:35.996Z,8.95
2018-12-08T10:47:03.611Z,8.84
2018-12-08T10:49:31.116Z,8.78
2018-12-08T10:51:58.676Z,8.63
2018-12-08T10:54:26.180Z,8.49
2018-12-08T10:56:53.803Z,8.55
2018-12-08T10:59:21.330Z,8.48
2018-12-08T11:01:54.812Z,8.43
2018-12-08T11:04:22.304Z,8.37
2018-12-08T11:06:49.803Z,8.42
2018-12-08T11:09:17.331Z,8.48
2018-12-08T11:11:44.842Z,8.54
2018-12-08T11:14:12.367Z,8.40
2018-12-08T11:16:39.882Z,8.23
2018-12-08T11:19:07.427Z,8.21
2018-12-08T11:21:34.943Z,8.26
2018-12-08T11:24:02.468Z,8.34
2018-12-08T11:26:29.963Z,8.31
2018-12-08T11:28:57.458Z,8.34
2018-12-08T11:31:24.995Z,8.37
2018-12-08T11:33:52.556Z,8.49
2018-12-08T11:36:20.223Z,8.54
2018-12-08T11:38:47.731Z,8.66
2018-12-08T11:41:15.851Z,8.57
2018-12-08T11:43:43.395Z,8.54
2018-12-08T11:46:10.962Z,8.57
2018-12-08T11:48:38.508Z,8.76
2018-12-08T11:51:06.017Z,8.80
2018-12-08T11:53:33.511Z,8.72
2018-12-08T11:56:01.034Z,8.66
2018-12-08T11:58:28.528Z,8.64
2018-12-08T12:00:56.091Z,8.54
2018-12-08T12:03:23.586Z,8.65
2018-12-08T12:05:51.081Z,8.80
2018-12-08T12:08:18.605Z,8.74
2018-12-08T12:10:46.101Z,8.64
2018-12-08T12:13:13.648Z,8.69
2018-12-08T12:15:41.152Z,8.62
2018-12-08T12:18:08.648Z,8.79
2018-12-08T12:20:36.929Z,8.75
2018-12-08T12:23:04.423Z,8.56
2018-12-08T12:25:32.183Z,8.89
2018-12-08T12:27:59.807Z,9.06
2018-12-08T12:30:27.402Z,9.11
2018-12-08T12:32:54.987Z,9.13
2018-12-08T12:35:22.479Z,9.25
2018-12-08T12:37:50.263Z,9.33
2018-12-08T12:40:17.777Z,9.09
2018-12-08T12:42:45.278Z,9.02
2018-12-08T12:45:12.812Z,9.22
2018-12-08T12:47:40.308Z,9.17
2018-12-08T12:50:07.831Z,9.06
2018-12-08T12:52:35.411Z,8.99
2018-12-08T12:55:02.944Z,9.22
2018-12-08T12:57:30.447Z,9.13
2018-12-08T12:59:57.996Z,9.06
2018-12-08T13:02:25.497Z,8.96
2018-12-08T13:04:52.999Z,8.89
2018-12-08T13:07:20.528Z,9.01
2018-12-08T13:09:48.020Z,8.88
2018-12-08T13:12:15.839Z,8.90
2018-12-08T13:14:43.363Z,8.86
2018-12-08T13:17:10.859Z,9.03
2018-12-08T13:19:38.367Z,8.82
2018-12-08T13:22:05.928Z,8.80
2018-12-08T13:24:33.427Z,8.60
2018-12-08T13:27:00.945Z,8.70
2018-12-08T13:29:28.588Z,8.52
2018-12-08T13:31:56.093Z,8.76
2018-12-08T13:34:24.886Z,8.97
2018-12-08T13:36:52.675Z,8.58
2018-12-08T13:39:20.166Z,9.00
2018-12-08T13:41:47.659Z,9.09
2018-12-08T13:44:27.091Z,9.00
2018-12-08T13:46:54.587Z,9.11
2018-12-08T13:49:22.083Z,8.77
2018-12-08T13:51:49.615Z,8.74
2018-12-08T13:57:27.191Z,8.84
2018-12-08T13:59:54.699Z,8.71
2018-12-08T14:02:22.219Z,8.69
2018-12-08T14:04:49.760Z,8.70
2018-12-08T14:07:17.288Z,8.86
2018-12-08T14:09:45.046Z,8.79
2018-12-08T14:12:12.597Z,8.85
2018-12-08T14:14:40.099Z,8.76
2018-12-08T14:17:07.605Z,8.82
2018-12-08T14:19:35.150Z,8.77
2018-12-08T14:22:02.759Z,8.71
2018-12-08T14:24:30.333Z,8.75
2018-12-08T14:26:57.875Z,8.83
2018-12-08T14:29:25.423Z,8.86
2018-12-08T14:31:53.101Z,8.73
2018-12-08T14:34:20.679Z,8.82
2018-12-08T14:36:48.184Z,8.75
2018-12-08T14:39:15.695Z,8.56
2018-12-08T14:41:43.239Z,8.67
2018-12-08T14:44:10.743Z,8.52
2018-12-08T14:46:38.244Z,8.54
2018-12-08T14:49:06.027Z,8.60
2018-12-08T14:51:33.534Z,8.57
2018-12-08T14:54:01.052Z,8.53
2018-12-08T14:56:28.611Z,8.46
2018-12-08T14:58:57.225Z,8.51
2018-12-08T15:01:25.601Z,8.53
2018-12-08T15:03:53.171Z,8.43
2018-12-08T15:06:20.780Z,8.42
2018-12-08T15:08:48.287Z,8.66
2018-12-08T15:11:15.844Z,8.58
2018-12-08T15:13:43.351Z,8.55
2018-12-08T15:16:10.862Z,8.73
2018-12-08T15:18:39.029Z,8.44
2018-12-08T15:21:06.535Z,8.51
2018-12-08T15:23:34.087Z,8.58
2018-12-08T15:26:01.650Z,8.45
2018-12-08T15:28:29.156Z,8.40
2018-12-08T15:30:56.671Z,8.51
2018-12-08T15:33:24.435Z,8.51
2018-12-08T15:35:51.942Z,8.43
2018-12-08T15:38:19.471Z,8.48
2018-12-08T15:40:47.031Z,8.50
2018-12-08T15:43:14.543Z,8.40
2018-12-08T15:45:44.148Z,8.39
2018-12-08T15:48:11.919Z,8.37
2018-12-08T15:50:39.475Z,8.38
2018-12-08T15:53:07.000Z,8.38
2018-12-08T15:55:34.539Z,8.47
2018-12-08T15:58:02.099Z,8.56
2018-12-08T16:00:29.724Z,8.54
2018-12-08T16:02:57.238Z,8.65
2018-12-08T16:05:25.987Z,8.66
2018-12-08T16:07:53.606Z,8.68
2018-12-08T16:10:21.162Z,8.71
2018-12-08T16:12:49.691Z,8.82
2018-12-08T16:15:17.203Z,8.82
2018-12-08T16:17:45.631Z,8.83
2018-12-08T16:20:13.587Z,8.84
2018-12-08T16:22:41.218Z,8.86
2018-12-08T16:25:08.953Z,8.83
2018-12-08T16:27:36.467Z,8.86
2018-12-08T16:30:05.652Z,8.85
2018-12-08T16:32:33.167Z,8.86
2018-12-08T16:35:00.680Z,8.89
2018-12-08T16:37:28.211Z,8.95
2018-12-08T16:39:57.732Z,9.01
2018-12-08T16:42:25.273Z,8.98
2018-12-08T16:44:52.793Z,8.90
2018-12-08T16:47:20.325Z,8.94
2018-12-08T16:49:50.924Z,8.95
2018-12-08T16:52:18.429Z,8.95
2018-12-08T16:54:45.962Z,8.94
2018-12-08T16:57:13.499Z,8.99
2018-12-08T16:59:41.094Z,8.95
2018-12-08T17:02:08.601Z,9.01
2018-12-08T17:04:38.083Z,8.97
2018-12-08T17:07:05.712Z,8.93
2018-12-08T17:09:33.232Z,8.95
2018-12-08T17:12:01.059Z,8.99
2018-12-08T17:14:28.569Z,8.95
2018-12-08T17:16:56.103Z,9.10
2018-12-08T17:19:23.763Z,8.97
2018-12-08T17:21:51.280Z,8.83
2018-12-08T17:24:18.788Z,8.98
2018-12-08T17:26:46.331Z,8.96
2018-12-08T17:29:13.892Z,8.88
2018-12-08T17:31:41.402Z,8.89
2018-12-08T17:34:08.947Z,8.88
2018-12-08T17:36:36.685Z,8.95
2018-12-08T17:39:05.891Z,9.03
2018-12-08T17:41:33.461Z,8.91
2018-12-08T17:44:00.963Z,9.05
2018-12-08T17:46:30.104Z,9.03
2018-12-08T17:48:57.627Z,8.90
2018-12-08T17:51:25.827Z,8.86
2018-12-08T17:53:53.360Z,8.81
2018-12-08T17:56:20.883Z,8.90
2018-12-08T17:58:48.439Z,8.74
2018-12-08T18:01:15.947Z,8.76
2018-12-08T18:03:43.584Z,8.83
2018-12-08T18:06:11.273Z,8.86
2018-12-08T18:08:38.779Z,8.88
2018-12-08T18:11:06.284Z,8.77
2018-12-08T18:13:33.830Z,8.90
2018-12-08T18:16:01.340Z,8.85
2018-12-08T18:18:28.851Z,8.68
2018-12-08T18:20:57.158Z,8.76
2018-12-08T18:23:24.967Z,8.69
2018-12-08T18:25:52.483Z,8.77
2018-12-08T18:28:20.027Z,8.88
2018-12-08T18:30:47.542Z,8.96
2018-12-08T18:33:15.152Z,8.73
2018-12-08T18:35:42.720Z,8.77
2018-12-08T18:38:10.224Z,8.74
2018-12-08T18:40:37.738Z,8.84
2018-12-08T18:43:05.285Z,8.88
2018-12-08T18:45:32.925Z,8.76
2018-12-08T18:48:00.436Z,8.77
2018-12-08T18:50:27.987Z,8.87
2018-12-08T18:52:55.495Z,8.82
2018-12-08T18:55:23.007Z,8.85
2018-12-08T18:57:50.583Z,8.83
2018-12-08T19:00:18.103Z,8.65
2018-12-08T19:02:45.614Z,8.72
2018-12-08T19:05:13.360Z,8.74
2018-12-08T19:07:40.867Z,8.79
2018-12-08T19:10:08.576Z,8.79
2018-12-08T19:12:36.125Z,8.80
2018-12-08T19:15:04.948Z,8.75
2018-12-08T19:17:32.459Z,8.86
2018-12-08T19:20:00.156Z,8.90
2018-12-08T19:22:27.668Z,8.82
2018-12-08T19:24:55.192Z,8.89
2018-12-08T19:27:22.731Z,8.76
2018-12-08T19:29:50.250Z,8.77
2018-12-08T19:32:17.760Z,8.75
2018-12-08T19:34:45.313Z,8.82
2018-12-08T19:37:12.848Z,8.85
2018-12-08T19:39:40.363Z,8.76
2018-12-08T19:42:07.907Z,8.85
2018-12-08T19:44:35.424Z,8.75
2018-12-08T19:47:03.006Z,8.70
2018-12-08T19:49:30.604Z,8.88
2018-12-08T19:51:58.115Z,8.93
2018-12-08T19:54:25.651Z,8.80
2018-12-08T19:56:53.188Z,8.86
2018-12-08T19:59:21.669Z,8.90
2018-12-08T20:01:49.187Z,9.04
2018-12-08T20:04:16.840Z,8.93
2018-12-08T20:06:44.347Z,8.96
2018-12-08T20:09:11.850Z,9.06
2018-12-08T20:11:39.392Z,9.18
2018-12-08T20:14:06.905Z,9.27
2018-12-08T20:16:34.519Z,9.21
2018-12-08T20:19:02.064Z,9.15
2018-12-08T20:21:29.625Z,9.14
2018-12-08T20:23:57.131Z,9.29
2018-12-08T20:26:24.668Z,9.25
2018-12-08T20:28:52.183Z,9.28
2018-12-08T20:31:20.047Z,9.34
2018-12-08T20:33:47.552Z,9.38
2018-12-08T20:36:15.114Z,9.53
2018-12-08T20:38:42.619Z,9.50
2018-12-08T20:41:10.284Z,9.47
2018-12-08T20:43:37.818Z,9.52
2018-12-08T20:46:05.328Z,9.44
2018-12-08T20:48:32.859Z,9.50
2018-12-08T20:51:00.380Z,9.51
2018-12-08T20:53:27.937Z,9.64
2018-12-08T20:55:55.448Z,9.62
2018-12-08T20:58:22.959Z,9.62
2018-12-08T21:00:50.503Z,9.60
2018-12-08T21:03:18.055Z,9.62
2018-12-08T21:05:45.678Z,9.78
2018-12-08T21:08:13.211Z,9.70
2018-12-08T21:10:40.715Z,9.71
2018-12-08T21:13:08.260Z,9.63
2018-12-08T21:15:35.763Z,9.66
2018-12-08T21:18:03.332Z,9.72
2018-12-08T21:20:31.824Z,9.82
2018-12-08T21:22:59.344Z,9.70
2018-12-08T21:25:26.887Z,9.76
2018-12-08T21:27:54.417Z,9.79
2018-12-08T21:30:21.991Z,9.72
2018-12-08T21:32:49.519Z,9.76
2018-12-08T21:35:17.133Z,9.77
2018-12-08T21:37:44.680Z,9.81
2018-12-08T21:40:18.051Z,9.87
2018-12-08T21:42:45.731Z,9.81
2018-12-08T21:45:13.239Z,9.93
2018-12-08T21:47:40.749Z,9.75
2018-12-08T21:50:08.279Z,9.85
2018-12-08T21:52:35.785Z,9.72
2018-12-08T21:55:04.140Z,9.74
2018-12-08T21:57:32.644Z,9.85
2018-12-08T22:00:01.007Z,9.77
2018-12-08T22:02:28.625Z,9.72
2018-12-08T22:04:56.131Z,9.83
2018-12-08T22:07:23.667Z,9.76
2018-12-08T22:09:51.172Z,9.85
2018-12-08T22:12:18.679Z,9.78
2018-12-08T22:14:52.098Z,9.82
2018-12-08T22:17:19.635Z,9.74
2018-12-08T22:19:47.810Z,9.83
2018-12-08T22:22:15.315Z,9.68
2018-12-08T22:24:43.163Z,9.77
2018-12-08T22:27:10.691Z,9.64
2018-12-08T22:29:38.207Z,9.67
2018-12-08T22:32:05.740Z,9.63
2018-12-08T22:34:33.244Z,9.59
2018-12-08T22:37:00.780Z,9.63
2018-12-08T22:39:28.296Z,9.65
2018-12-08T22:41:56.080Z,9.66
2018-12-08T22:44:23.595Z,9.67
2018-12-08T22:46:51.127Z,9.73
2018-12-08T22:49:18.664Z,9.53
2018-12-08T22:51:46.224Z,9.46
2018-12-08T22:54:13.767Z,9.56
2018-12-08T22:56:41.275Z,9.74
2018-12-08T22:59:08.847Z,9.65
2018-12-08T23:01:36.355Z,9.78
2018-12-08T23:04:03.859Z,9.65
2018-12-08T23:06:31.510Z,9.57
2018-12-08T23:08:59.240Z,9.71
2018-12-08T23:11:26.776Z,9.63
2018-12-08T23:13:54.294Z,9.62
2018-12-08T23:16:23.887Z,9.68
2018-12-08T23:18:51.392Z,9.76
2018-12-08T23:21:18.896Z,9.69
2018-12-08T23:23:46.436Z,9.66
2018-12-08T23:26:13.952Z,9.68
2018-12-08T23:28:41.531Z,9.67
2018-12-08T23:31:09.042Z,9.66
2018-12-08T23:33:36.580Z,9.66
2018-12-08T23:36:04.216Z,9.60
2018-12-08T23:38:31.730Z,9.68
2018-12-08T23:40:59.299Z,9.58
2018-12-08T23:43:26.809Z,9.64
2018-12-08T23:45:54.327Z,9.49
2018-12-08T23:48:21.878Z,9.58
2018-12-08T23:50:49.379Z,9.51
2018-12-08T23:53:16.959Z,9.37
2018-12-08T23:55:44.471Z,9.27
2018-12-08T23:58:11.975Z,9.28
